createdAt,value
2022-08-25T00:02:36.566Z,4.17
2022-08-25T00:07:39.267Z,4.30
2022-08-25T00:12:42.539Z,4.97
2022-08-25T00:17:44.670Z,4.47
2022-08-25T00:22:46.615Z,5.07
2022-08-25T00:27:50.904Z,4.73
2022-08-25T00:32:57.226Z,5.20
2022-08-25T00:37:59.736Z,4.20
2022-08-25T00:43:04.149Z,4.07
2022-08-25T00:48:06.856Z,4.53
2022-08-25T00:53:08.999Z,4.07
2022-08-25T00:58:18.337Z,4.00
2022-08-25T01:03:21.482Z,4.63
2022-08-25T01:08:29.123Z,4.40
2022-08-25T01:13:38.128Z,4.43
2022-08-25T01:18:47.543Z,5.53
2022-08-25T01:23:52.150Z,4.30
2022-08-25T01:28:54.684Z,4.77
2022-08-25T01:33:57.972Z,4.27
2022-08-25T01:39:01.061Z,4.57
2022-08-25T01:44:05.858Z,5.00
2022-08-25T01:49:11.091Z,5.10
2022-08-25T01:54:14.391Z,4.83
2022-08-25T01:59:24.126Z,5.47
2022-08-25T02:04:26.536Z,4.93
2022-08-25T02:09:29.971Z,4.97
2022-08-25T02:14:32.477Z,5.27
2022-08-25T02:19:34.528Z,5.57
2022-08-25T02:24:37.799Z,5.30
2022-08-25T02:29:39.918Z,5.27
2022-08-25T02:34:42.121Z,6.00
2022-08-25T02:39:45.681Z,5.93
2022-08-25T02:44:47.421Z,6.30
2022-08-25T02:49:49.686Z,5.93
2022-08-25T02:54:52.967Z,5.17
2022-08-25T02:59:54.864Z,5.27
2022-08-25T03:04:56.998Z,6.60
2022-08-25T03:10:00.558Z,6.03
2022-08-25T03:15:02.858Z,5.87
2022-08-25T03:20:06.665Z,5.60
2022-08-25T03:25:10.866Z,5.93
2022-08-25T03:30:13.379Z,6.10
2022-08-25T03:35:15.703Z,6.83
2022-08-25T03:40:19.345Z,6.30
2022-08-25T03:45:21.548Z,6.83
2022-08-25T03:50:24.226Z,7.13
2022-08-25T03:55:28.603Z,7.20
2022-08-25T04:00:33.011Z,6.50
2022-08-25T04:05:34.719Z,6.70
2022-08-25T04:10:38.306Z,7.47
2022-08-25T04:15:42.481Z,7.40
2022-08-25T04:20:46.683Z,7.20
2022-08-25T04:25:50.041Z,8.77
2022-08-25T04:30:52.219Z,8.13
2022-08-25T04:35:54.383Z,8.83
2022-08-25T04:40:59.110Z,7.87
2022-08-25T04:46:05.771Z,7.77
2022-08-25T04:51:10.099Z,7.00
2022-08-25T04:56:15.838Z,6.60
2022-08-25T05:01:22.101Z,6.60
2022-08-25T05:06:24.736Z,7.50
2022-08-25T05:11:28.255Z,7.53
2022-08-25T05:16:30.759Z,7.43
2022-08-25T05:21:32.931Z,7.00
2022-08-25T05:26:38.530Z,6.32
2022-08-25T05:31:44.875Z,5.63
2022-08-25T05:36:49.631Z,5.63
2022-08-25T05:41:52.760Z,6.00
2022-08-25T05:46:54.503Z,5.07
2022-08-25T05:51:56.363Z,4.32
2022-08-25T05:56:59.561Z,4.25
2022-08-25T06:02:01.683Z,4.43
2022-08-25T06:07:03.413Z,3.95
2022-08-25T06:12:07.646Z,4.28
2022-08-25T06:17:10.648Z,4.40
2022-08-25T06:22:12.490Z,4.13
2022-08-25T06:27:15.582Z,4.65
2022-08-25T06:32:17.720Z,4.95
2022-08-25T06:37:24.615Z,5.88
2022-08-25T06:42:28.593Z,6.40
2022-08-25T06:47:30.710Z,6.90
2022-08-25T06:52:33.226Z,7.18
2022-08-25T06:57:36.368Z,7.90
2022-08-25T07:02:38.581Z,8.13
2022-08-25T07:07:43.640Z,9.55
2022-08-25T07:12:47.951Z,11.82
2022-08-25T07:17:50.333Z,11.77
2022-08-25T07:22:52.440Z,11.95
2022-08-25T07:27:58.857Z,10.65
2022-08-25T07:33:05.864Z,10.52
2022-08-25T07:38:09.062Z,10.80
2022-08-25T07:43:13.888Z,9.60
2022-08-25T07:48:17.768Z,8.55
2022-08-25T07:53:20.513Z,8.52
2022-08-25T07:58:26.160Z,8.23
2022-08-25T08:03:45.053Z,8.23
2022-08-25T08:08:48.796Z,8.32
2022-08-25T08:13:53.267Z,6.97
2022-08-25T08:18:56.145Z,8.00
2022-08-25T08:23:59.361Z,7.72
2022-08-25T08:29:02.807Z,7.57
2022-08-25T08:34:04.860Z,8.40
2022-08-25T08:39:07.066Z,8.38
2022-08-25T08:44:19.345Z,9.45
2022-08-25T08:49:28.524Z,9.45
2022-08-25T08:54:34.726Z,9.93
2022-08-25T08:59:49.575Z,8.70
2022-08-25T09:04:56.207Z,9.20
2022-08-25T09:09:58.257Z,8.68
2022-08-25T09:15:13.857Z,7.50
2022-08-25T09:20:34.459Z,7.03
2022-08-25T09:25:52.407Z,6.43
2022-08-25T09:31:01.132Z,7.10
2022-08-25T09:36:04.598Z,6.65
2022-08-25T09:41:08.889Z,5.93
2022-08-25T09:46:14.642Z,7.03
2022-08-25T09:51:20.305Z,6.65
2022-08-25T09:56:24.558Z,6.05
2022-08-25T10:01:29.289Z,7.13
2022-08-25T10:06:44.951Z,6.45
2022-08-25T10:11:48.037Z,6.30
2022-08-25T10:16:51.480Z,5.60
2022-08-25T10:22:05.816Z,6.47
2022-08-25T10:27:18.716Z,6.30
2022-08-25T10:32:33.414Z,5.65
2022-08-25T10:37:44.073Z,5.85
2022-08-25T10:42:56.617Z,6.25
2022-08-25T10:48:51.788Z,6.05
2022-08-25T10:54:02.242Z,5.38
2022-08-25T10:59:16.691Z,5.20
2022-08-25T11:04:25.283Z,5.43
2022-08-25T11:09:33.377Z,5.65
2022-08-25T11:14:42.814Z,4.78
2022-08-25T11:19:47.373Z,5.63
2022-08-25T11:25:02.048Z,5.20
2022-08-25T11:30:08.943Z,5.10
2022-08-25T11:35:13.890Z,5.18
2022-08-25T11:40:50.299Z,5.43
2022-08-25T11:46:06.293Z,4.65
2022-08-25T11:51:10.757Z,5.00
2022-08-25T11:56:34.682Z,5.25
2022-08-25T12:02:28.116Z,5.30
2022-08-25T12:07:51.008Z,5.28
2022-08-25T12:13:02.272Z,5.05
2022-08-25T12:18:12.932Z,4.95
2022-08-25T12:23:16.246Z,5.47
2022-08-25T12:28:37.541Z,5.55
2022-08-25T12:33:50.174Z,5.50
2022-08-25T12:38:52.558Z,4.95
2022-08-25T12:44:17.412Z,5.05
2022-08-25T12:49:32.451Z,5.43
2022-08-25T12:54:47.615Z,4.25
2022-08-25T12:59:54.921Z,4.30
2022-08-25T13:05:14.505Z,4.40
2022-08-25T13:10:32.744Z,4.93
2022-08-25T13:15:41.053Z,4.60
2022-08-25T13:20:44.063Z,5.68
2022-08-25T13:25:49.466Z,4.72
2022-08-25T13:31:05.525Z,4.05
2022-08-25T13:36:16.788Z,4.93
2022-08-25T13:41:28.752Z,4.50
2022-08-25T13:46:35.515Z,4.60
2022-08-25T13:51:39.499Z,4.70
2022-08-25T13:56:42.227Z,4.53
2022-08-25T14:01:50.082Z,4.15
2022-08-25T14:07:27.241Z,4.85
2022-08-25T14:12:40.043Z,4.55
2022-08-25T14:22:51.664Z,5.03
2022-08-25T14:28:13.500Z,4.20
2022-08-25T14:33:19.690Z,4.00
2022-08-25T14:38:23.155Z,3.97
2022-08-25T14:43:31.745Z,4.40
2022-08-25T14:48:42.730Z,4.47
2022-08-25T14:53:44.566Z,4.88
2022-08-25T14:58:50.820Z,4.10
2022-08-25T15:03:57.714Z,4.70
2022-08-25T15:08:59.915Z,4.05
2022-08-25T15:14:02.357Z,4.35
2022-08-25T15:19:07.125Z,4.97
2022-08-25T15:24:11.099Z,3.63
2022-08-25T15:29:14.081Z,3.95
2022-08-25T15:34:19.319Z,4.32
2022-08-25T15:39:21.183Z,3.45
2022-08-25T15:44:28.597Z,3.75
2022-08-25T15:49:32.959Z,3.90
2022-08-25T15:54:34.913Z,4.10
2022-08-25T15:59:40.976Z,3.70
2022-08-25T16:04:44.936Z,4.20
2022-08-25T16:09:47.336Z,4.75
2022-08-25T16:14:49.124Z,3.80
2022-08-25T16:19:55.254Z,3.90
2022-08-25T16:24:57.206Z,3.25
2022-08-25T16:30:00.242Z,3.35
2022-08-25T16:35:05.622Z,3.88
2022-08-25T16:40:13.510Z,3.58
2022-08-25T16:45:17.146Z,3.65
2022-08-25T16:50:20.521Z,4.43
2022-08-25T16:55:23.152Z,3.60
2022-08-25T17:00:28.231Z,4.07
2022-08-25T17:05:33.608Z,3.33
2022-08-25T17:10:38.258Z,7.10
2022-08-25T17:15:42.726Z,4.80
2022-08-25T17:20:46.911Z,4.93
2022-08-25T17:25:49.699Z,4.40
2022-08-25T17:30:51.413Z,4.60
2022-08-25T17:35:56.921Z,4.10
2022-08-25T17:41:01.474Z,4.07
2022-08-25T17:46:04.761Z,4.40
2022-08-25T17:51:09.457Z,3.80
2022-08-25T17:56:14.086Z,4.28
2022-08-25T18:01:19.007Z,3.78
2022-08-25T18:06:23.063Z,3.63
2022-08-25T18:11:25.050Z,4.30
2022-08-25T18:16:28.000Z,4.47
2022-08-25T18:21:31.881Z,3.60
2022-08-25T18:26:34.597Z,4.40
2022-08-25T18:31:36.668Z,3.90
2022-08-25T18:36:40.379Z,4.85
2022-08-25T18:41:44.960Z,4.40
2022-08-25T18:46:47.841Z,4.05
2022-08-25T18:51:51.443Z,3.80
2022-08-25T18:56:54.054Z,4.38
2022-08-25T19:01:56.779Z,4.25
2022-08-25T19:07:01.396Z,4.25
2022-08-25T19:12:04.504Z,4.93
2022-08-25T19:17:06.961Z,4.38
2022-08-25T19:22:31.672Z,5.55
2022-08-25T19:27:33.017Z,5.35
2022-08-25T19:32:35.448Z,4.72
2022-08-25T19:37:40.128Z,5.05
2022-08-25T19:42:42.251Z,4.88
2022-08-25T19:47:44.000Z,5.30
2022-08-25T19:52:49.821Z,4.63
2022-08-25T19:57:52.436Z,5.30
2022-08-25T20:02:55.542Z,5.65
2022-08-25T20:07:59.595Z,5.15
2022-08-25T20:13:01.857Z,5.75
2022-08-25T20:18:04.621Z,5.55
2022-08-25T20:23:08.364Z,5.22
2022-08-25T20:28:12.766Z,5.85
2022-08-25T20:33:22.947Z,5.43
2022-08-25T20:38:27.258Z,5.47
2022-08-25T20:43:28.954Z,6.63
2022-08-25T20:48:31.045Z,6.00
2022-08-25T20:53:37.104Z,5.95
2022-08-25T20:58:39.597Z,6.90
2022-08-25T21:03:42.927Z,6.72
2022-08-25T21:08:46.723Z,6.65
2022-08-25T21:13:48.593Z,8.40
2022-08-25T21:18:51.235Z,5.95
2022-08-25T21:23:55.166Z,6.18
2022-08-25T21:28:58.245Z,6.30
2022-08-25T21:34:00.937Z,5.75
2022-08-25T21:39:04.805Z,6.22
2022-08-25T21:44:07.605Z,6.93
2022-08-25T21:49:09.647Z,6.20
2022-08-25T21:54:16.077Z,8.07
2022-08-25T21:59:20.157Z,6.72
2022-08-25T22:04:22.741Z,7.15
2022-08-25T22:09:28.234Z,6.50
2022-08-25T22:14:30.613Z,7.18
2022-08-25T22:19:33.582Z,8.23
2022-08-25T22:24:37.218Z,7.45
2022-08-25T22:29:39.288Z,7.55
2022-08-25T22:34:43.638Z,7.60
2022-08-25T22:39:47.507Z,7.97
2022-08-25T22:44:50.104Z,7.45
2022-08-25T22:49:52.467Z,7.68
2022-08-25T22:54:55.664Z,6.80
2022-08-25T22:59:57.708Z,7.15
2022-08-25T23:05:00.796Z,7.78
2022-08-25T23:10:05.470Z,7.28
2022-08-25T23:15:09.932Z,6.72
2022-08-25T23:20:12.017Z,7.18
2022-08-25T23:25:15.684Z,6.63
2022-08-25T23:30:18.222Z,6.55
2022-08-25T23:35:20.217Z,7.05
2022-08-25T23:40:24.744Z,6.70
2022-08-25T23:45:27.235Z,6.57
2022-08-25T23:50:28.982Z,5.93
2022-08-25T23:55:34.091Z,6.72
